Afton, CA

11:54 PM PST on February 28, 2015 (GMT -0800)
Behring Ranch | Change Station
CLOSE
Current Station
Personal Weather Station
Location: Colusa, CA
Elevation: 52 ft
Nearby Weather Stations
Active Advisory: Hydrologic Statement Active Notice: Public Information Statement

Elev 52 ft 39.34 °N, 121.93 °W | Updated 2 minutes ago

Clear
Clear
40.6 °F
Feels Like 38 °F
N
4.0
Wind Variable Wind from NW

Today
High -- | Low -- °F
--% Chance of Precip.
Yesterday
High -- | Low -- °F
Precip. -- in
6:42 AM 5:58 PM
Waxing Gibbous, 83% visible
Pressure 29.94 in
Visibility 10.0 miles
Clouds Clear
Windchill 38 °F
Dew Point 38 °F
Humidity 89%
Rainfall 0.00 in
Snow Depth Not available.
UV 0 out of 12
Pollen 4.80 out of 12
Air Quality Not available.
Flu Activity Not available.
METAR KOVE 010653Z AUTO 04003KT 10SM CLR 08/06 A2994 RMK AO2 SLPNO T00830056 $

More Conditions Fewer Conditions

Pressure 29.94 in
Visibility 10.0 miles
Clouds Clear
Windchill 38 °F
Dew Point 38 °F
Humidity 89%
Rainfall 0.00 in
Snow Depth Not available.
UV 0 out of 12
Pollen 4.80 out of 12
Air Quality Not available.
Flu Activity Not available.
METAR KOVE 010653Z AUTO 04003KT 10SM CLR 08/06 A2994 RMK AO2 SLPNO T00830056 $

More Conditions Fewer Conditions

10-Day Weather Forecast

Almanac

Astronomy

Feb. 28, 2015 Rise Set
Actual Time
Civil Twilight
Nautical Twilight
Astronomical Twilight
Moon
Length of Visible Light
Length of Day
Tomorrow will be .
, % of the Moon is Illuminated

Today's Extremes

State Highs State Lows

Community

WunderPhotos

Upload Photos

1,801,347 photos uploaded!

WunderBlogs® & News

Nearby

Air Quality

  Air Quality AQ Index Pollutant
Not available.

Snow Depth

Station Depth Elevation

Earthquake Activity

City Distance Mag. Time & Date
Minimum magnitude displayed is 2.5.

Coastal Water Temperatures

Place Temperature

Nearby Weather Stations

Hydrologic Statement
Statement as of 11:58 AM PST on February 28, 2015

Forecast information for
Sacramento River at Colusa bridge.
* At 11:45 am Saturday the stage was 41.9 feet.
* Forecast to fluctuate near 42.0 ft thru near Monday noon.
* Flood stage 70.0 ft
* monitor stage 63.0 ft


&&

Lat... Lon 3923 12214 3922 12188 3907 12180 3905 12196
      3922 12204